sensor_id;sensor_type;location;lat;lon;timestamp;pressure;altitude;pressure_sealevel;temperature;humidity
28344;BME280;15597;50.914;6.638;2024-03-23T00:51:32;100228.47;;;15.15;52.95
28344;BME280;15597;50.914;6.638;2024-03-23T00:53:58;100207.84;;;15.06;52.89
28344;BME280;15597;50.914;6.638;2024-03-23T00:56:23;100208.13;;;14.99;53.15
28344;BME280;15597;50.914;6.638;2024-03-23T00:58:49;100203.91;;;14.95;53.42
28344;BME280;15597;50.914;6.638;2024-03-23T01:01:15;100207.47;;;14.94;53.54
28344;BME280;15597;50.914;6.638;2024-03-23T01:03:41;100197.88;;;14.93;54.12
28344;BME280;15597;50.914;6.638;2024-03-23T01:06:07;100206.69;;;14.92;54.13
28344;BME280;15597;50.914;6.638;2024-03-23T01:08:32;100196.34;;;14.87;54.17
28344;BME280;15597;50.914;6.638;2024-03-23T01:11:01;100199.47;;;14.77;53.43
28344;BME280;15597;50.914;6.638;2024-03-23T01:13:28;100200.63;;;14.69;53.69
28344;BME280;15597;50.914;6.638;2024-03-23T01:15:55;100200.06;;;14.63;53.74
28344;BME280;15597;50.914;6.638;2024-03-23T01:18:21;100194.22;;;14.56;53.66
28344;BME280;15597;50.914;6.638;2024-03-23T01:20:47;100194.34;;;14.53;53.88
28344;BME280;15597;50.914;6.638;2024-03-23T01:23:13;100200.66;;;14.49;53.68
28344;BME280;15597;50.914;6.638;2024-03-23T01:25:39;100208.84;;;14.42;53.89
28344;BME280;15597;50.914;6.638;2024-03-23T01:28:05;100208.19;;;14.37;53.48
28344;BME280;15597;50.914;6.638;2024-03-23T01:30:34;100192.66;;;14.31;53.82
28344;BME280;15597;50.914;6.638;2024-03-23T01:33:00;100187.44;;;14.29;53.98
28344;BME280;15597;50.914;6.638;2024-03-23T01:35:26;100195.28;;;14.31;54.42
28344;BME280;15597;50.914;6.638;2024-03-23T01:37:51;100204.75;;;14.35;54.43
28344;BME280;15597;50.914;6.638;2024-03-23T01:40:17;100203.06;;;14.34;54.23
28344;BME280;15597;50.914;6.638;2024-03-23T01:42:55;100195.56;;;14.25;54.27
28344;BME280;15597;50.914;6.638;2024-03-23T01:45:21;100196.53;;;14.22;54.54
28344;BME280;15597;50.914;6.638;2024-03-23T01:47:46;100198.06;;;14.07;54.12
28344;BME280;15597;50.914;6.638;2024-03-23T01:50:13;100200.16;;;13.99;54.77
28344;BME280;15597;50.914;6.638;2024-03-23T01:52:38;100219.50;;;13.98;55.02
28344;BME280;15597;50.914;6.638;2024-03-23T01:55:04;100219.63;;;13.95;54.14
28344;BME280;15597;50.914;6.638;2024-03-23T01:57:30;100209.34;;;13.88;54.51
28344;BME280;15597;50.914;6.638;2024-03-23T01:59:56;100218.16;;;13.87;54.44
28344;BME280;15597;50.914;6.638;2024-03-23T02:02:26;100217.63;;;13.79;54.44
28344;BME280;15597;50.914;6.638;2024-03-23T02:04:52;100218.06;;;13.68;54.98
28344;BME280;15597;50.914;6.638;2024-03-23T02:07:17;100213.75;;;13.66;55.06
28344;BME280;15597;50.914;6.638;2024-03-23T02:09:43;100205.06;;;13.64;54.76
28344;BME280;15597;50.914;6.638;2024-03-23T02:12:09;100199.81;;;13.64;55.06
28344;BME280;15597;50.914;6.638;2024-03-23T02:14:36;100183.13;;;13.65;55.46
28344;BME280;15597;50.914;6.638;2024-03-23T02:17:01;100174.31;;;13.66;55.46
28344;BME280;15597;50.914;6.638;2024-03-23T02:19:27;100185.50;;;13.71;55.10
28344;BME280;15597;50.914;6.638;2024-03-23T02:21:52;100194.19;;;13.73;54.88
28344;BME280;15597;50.914;6.638;2024-03-23T02:24:18;100201.94;;;13.76;55.13
28344;BME280;15597;50.914;6.638;2024-03-23T02:26:44;100205.38;;;13.78;55.08
28344;BME280;15597;50.914;6.638;2024-03-23T02:29:09;100213.16;;;13.81;55.00
28344;BME280;15597;50.914;6.638;2024-03-23T02:31:35;100214.88;;;13.82;54.62
28344;BME280;15597;50.914;6.638;2024-03-23T02:34:01;100216.59;;;13.83;55.22
28344;BME280;15597;50.914;6.638;2024-03-23T02:36:27;100219.88;;;13.88;55.15
28344;BME280;15597;50.914;6.638;2024-03-23T02:38:53;100224.88;;;13.95;55.07
28344;BME280;15597;50.914;6.638;2024-03-23T02:41:18;100222.03;;;13.99;54.44
28344;BME280;15597;50.914;6.638;2024-03-23T02:43:49;100223.75;;;14.00;54.58
28344;BME280;15597;50.914;6.638;2024-03-23T02:46:15;100218.38;;;14.03;54.62
28344;BME280;15597;50.914;6.638;2024-03-23T02:48:41;100229.69;;;14.06;54.03
28344;BME280;15597;50.914;6.638;2024-03-23T02:51:06;100226.22;;;14.05;53.77
28344;BME280;15597;50.914;6.638;2024-03-23T02:53:32;100218.44;;;14.02;53.39
28344;BME280;15597;50.914;6.638;2024-03-23T02:55:58;100214.34;;;13.95;53.09
28344;BME280;15597;50.914;6.638;2024-03-23T02:58:24;100213.69;;;13.90;53.22
28344;BME280;15597;50.914;6.638;2024-03-23T03:00:49;100205.97;;;13.85;53.67
28344;BME280;15597;50.914;6.638;2024-03-23T03:03:15;100199.94;;;13.83;53.02
28344;BME280;15597;50.914;6.638;2024-03-23T03:05:40;100194.81;;;13.80;52.86
28344;BME280;15597;50.914;6.638;2024-03-23T03:08:06;100190.63;;;13.74;53.34
28344;BME280;15597;50.914;6.638;2024-03-23T03:10:32;100193.34;;;13.72;53.30
28344;BME280;15597;50.914;6.638;2024-03-23T03:13:00;100201.34;;;13.69;53.02
28344;BME280;15597;50.914;6.638;2024-03-23T03:15:26;100203.25;;;13.66;53.13
28344;BME280;15597;50.914;6.638;2024-03-23T03:17:52;100203.25;;;13.66;53.59
28344;BME280;15597;50.914;6.638;2024-03-23T03:20:17;100196.28;;;13.65;53.74
28344;BME280;15597;50.914;6.638;2024-03-23T03:22:43;100203.25;;;13.66;53.69
28344;BME280;15597;50.914;6.638;2024-03-23T03:25:09;100204.09;;;13.66;53.25
28344;BME280;15597;50.914;6.638;2024-03-23T03:27:35;100198.84;;;13.66;53.33
28344;BME280;15597;50.914;6.638;2024-03-23T03:30:00;100199.81;;;13.64;52.81
28344;BME280;15597;50.914;6.638;2024-03-23T03:32:30;100199.16;;;13.58;52.49
28344;BME280;15597;50.914;6.638;2024-03-23T03:34:56;100193.88;;;13.58;52.80
28344;BME280;15597;50.914;6.638;2024-03-23T03:37:22;100205.31;;;13.57;52.75
28344;BME280;15597;50.914;6.638;2024-03-23T03:39:47;100200.19;;;13.54;52.75
28344;BME280;15597;50.914;6.638;2024-03-23T03:42:13;100209.00;;;13.53;52.47
28344;BME280;15597;50.914;6.638;2024-03-23T03:44:39;100214.38;;;13.50;52.17
28344;BME280;15597;50.914;6.638;2024-03-23T03:47:05;100211.94;;;13.46;52.46
28344;BME280;15597;50.914;6.638;2024-03-23T03:49:31;100212.06;;;13.41;52.13
28344;BME280;15597;50.914;6.638;2024-03-23T03:51:57;100211.66;;;13.29;52.29
28344;BME280;15597;50.914;6.638;2024-03-23T03:54:22;100199.66;;;13.22;52.25
28344;BME280;15597;50.914;6.638;2024-03-23T03:56:48;100203.31;;;13.18;52.27
28344;BME280;15597;50.914;6.638;2024-03-23T03:59:15;100200.97;;;13.10;52.33
28344;BME280;15597;50.914;6.638;2024-03-23T04:01:41;100217.97;;;13.02;52.31
28344;BME280;15597;50.914;6.638;2024-03-23T04:04:06;100225.16;;;12.96;52.58
28344;BME280;15597;50.914;6.638;2024-03-23T04:06:32;100218.31;;;12.92;52.34
28344;BME280;15597;50.914;6.638;2024-03-23T04:08:59;100213.06;;;12.92;53.05
28344;BME280;15597;50.914;6.638;2024-03-23T04:11:24;100207.03;;;12.89;52.94
28344;BME280;15597;50.914;6.638;2024-03-23T04:13:50;100210.59;;;12.88;53.29
28344;BME280;15597;50.914;6.638;2024-03-23T04:16:41;100206.25;;;12.86;53.71
28344;BME280;15597;50.914;6.638;2024-03-23T04:19:07;100209.50;;;12.93;54.13
28344;BME280;15597;50.914;6.638;2024-03-23T04:21:33;100211.13;;;12.97;53.88
28344;BME280;15597;50.914;6.638;2024-03-23T04:23:59;100210.09;;;13.02;54.46
28344;BME280;15597;50.914;6.638;2024-03-23T04:26:25;100212.53;;;13.06;53.99
28344;BME280;15597;50.914;6.638;2024-03-23T04:28:50;100208.94;;;13.09;53.95
28344;BME280;15597;50.914;6.638;2024-03-23T04:31:16;100210.53;;;13.13;54.34
28344;BME280;15597;50.914;6.638;2024-03-23T04:33:41;100214.06;;;13.12;54.47
28344;BME280;15597;50.914;6.638;2024-03-23T04:36:07;100213.94;;;13.15;54.10
28344;BME280;15597;50.914;6.638;2024-03-23T04:38:32;100209.41;;;13.19;54.57
28344;BME280;15597;50.914;6.638;2024-03-23T04:40:59;100207.53;;;13.22;54.32
28344;BME280;15597;50.914;6.638;2024-03-23T04:43:28;100203.09;;;13.24;54.66
28344;BME280;15597;50.914;6.638;2024-03-23T04:45:53;100201.13;;;13.29;54.40
28344;BME280;15597;50.914;6.638;2024-03-23T04:48:20;100202.72;;;13.34;54.09
28344;BME280;15597;50.914;6.638;2024-03-23T04:50:48;100199.19;;;13.35;54.48
28344;BME280;15597;50.914;6.638;2024-03-23T04:53:15;100190.25;;;13.39;54.34
28344;BME280;15597;50.914;6.638;2024-03-23T04:55:42;100194.69;;;13.38;54.57
28344;BME280;15597;50.914;6.638;2024-03-23T04:58:08;100197.22;;;13.40;54.05
28344;BME280;15597;50.914;6.638;2024-03-23T05:00:33;100198.09;;;13.40;53.87
28344;BME280;15597;50.914;6.638;2024-03-23T05:02:59;100195.44;;;13.42;53.84
28344;BME280;15597;50.914;6.638;2024-03-23T05:05:25;100195.44;;;13.42;54.00
28344;BME280;15597;50.914;6.638;2024-03-23T05:07:51;100202.44;;;13.41;53.68
28344;BME280;15597;50.914;6.638;2024-03-23T05:10:19;100200.78;;;13.39;53.88
28344;BME280;15597;50.914;6.638;2024-03-23T05:12:45;100202.59;;;13.37;53.67
28344;BME280;15597;50.914;6.638;2024-03-23T05:15:11;100204.38;;;13.36;53.88
28344;BME280;15597;50.914;6.638;2024-03-23T05:17:38;100197.34;;;13.37;53.86
28344;BME280;15597;50.914;6.638;2024-03-23T05:20:04;100202.72;;;13.34;53.70
28344;BME280;15597;50.914;6.638;2024-03-23T05:22:35;100201.13;;;13.29;53.60
28344;BME280;15597;50.914;6.638;2024-03-23T05:25:01;100194.28;;;13.25;53.53
28344;BME280;15597;50.914;6.638;2024-03-23T05:27:31;100197.19;;;13.18;53.00
28344;BME280;15597;50.914;6.638;2024-03-23T05:29:57;100202.88;;;13.07;53.48
28344;BME280;15597;50.914;6.638;2024-03-23T05:32:23;100203.03;;;13.02;53.86
28344;BME280;15597;50.914;6.638;2024-03-23T05:34:49;100200.59;;;12.97;53.77
28344;BME280;15597;50.914;6.638;2024-03-23T05:37:15;100211.13;;;12.97;53.86
28344;BME280;15597;50.914;6.638;2024-03-23T05:39:41;100203.34;;;12.94;54.14
28344;BME280;15597;50.914;6.638;2024-03-23T05:42:07;100204.25;;;12.93;54.06
28344;BME280;15597;50.914;6.638;2024-03-23T05:44:33;100211.22;;;12.94;54.15
28344;BME280;15597;50.914;6.638;2024-03-23T05:46:58;100211.22;;;12.94;54.06
28344;BME280;15597;50.914;6.638;2024-03-23T05:49:24;100216.38;;;12.97;54.25
28344;BME280;15597;50.914;6.638;2024-03-23T05:51:50;100212.03;;;12.96;54.52
28344;BME280;15597;50.914;6.638;2024-03-23T05:54:15;100211.13;;;12.97;54.47
28344;BME280;15597;50.914;6.638;2024-03-23T05:56:41;100214.53;;;12.99;54.34
28344;BME280;15597;50.914;6.638;2024-03-23T05:59:07;100215.38;;;13.00;54.53
28344;BME280;15597;50.914;6.638;2024-03-23T06:01:33;100221.38;;;13.04;54.18
28344;BME280;15597;50.914;6.638;2024-03-23T06:03:58;100217.97;;;13.02;54.39
28344;BME280;15597;50.914;6.638;2024-03-23T06:06:24;100217.97;;;13.02;54.24
28344;BME280;15597;50.914;6.638;2024-03-23T06:08:49;100228.34;;;13.05;54.04
28344;BME280;15597;50.914;6.638;2024-03-23T06:11:15;100230.28;;;12.99;53.98
28344;BME280;15597;50.914;6.638;2024-03-23T06:13:41;100221.50;;;13.00;54.13
28344;BME280;15597;50.914;6.638;2024-03-23T06:16:06;100224.06;;;13.02;54.52
28344;BME280;15597;50.914;6.638;2024-03-23T06:18:32;100224.94;;;13.03;54.48
28344;BME280;15597;50.914;6.638;2024-03-23T06:20:58;100237.16;;;13.04;53.97
28344;BME280;15597;50.914;6.638;2024-03-23T06:23:23;100231.09;;;13.02;54.42
28344;BME280;15597;50.914;6.638;2024-03-23T06:25:49;100237.25;;;13.00;54.13
28344;BME280;15597;50.914;6.638;2024-03-23T06:28:15;100220.69;;;12.98;54.15
28344;BME280;15597;50.914;6.638;2024-03-23T06:30:41;100223.34;;;12.98;54.10
28344;BME280;15597;50.914;6.638;2024-03-23T06:33:06;100223.34;;;12.98;54.29
28344;BME280;15597;50.914;6.638;2024-03-23T06:35:32;100228.59;;;12.98;54.20
28344;BME280;15597;50.914;6.638;2024-03-23T06:37:57;100237.38;;;12.97;54.08
28344;BME280;15597;50.914;6.638;2024-03-23T06:40:26;100246.97;;;12.98;54.48
28344;BME280;15597;50.914;6.638;2024-03-23T06:42:51;100236.47;;;12.98;54.20
28344;BME280;15597;50.914;6.638;2024-03-23T06:45:17;100244.34;;;12.98;54.56
28344;BME280;15597;50.914;6.638;2024-03-23T06:47:49;100249.59;;;12.98;54.49
28344;BME280;15597;50.914;6.638;2024-03-23T06:50:15;100241.75;;;12.97;54.70
28344;BME280;15597;50.914;6.638;2024-03-23T06:52:41;100254.84;;;12.98;54.44
28344;BME280;15597;50.914;6.638;2024-03-23T06:55:07;100246.88;;;13.00;54.96
28344;BME280;15597;50.914;6.638;2024-03-23T06:57:33;100253.13;;;12.97;54.55
28344;BME280;15597;50.914;6.638;2024-03-23T06:59:58;100250.44;;;12.99;54.82
28344;BME280;15597;50.914;6.638;2024-03-23T07:02:24;100252.22;;;12.98;54.68
28344;BME280;15597;50.914;6.638;2024-03-23T07:04:49;100251.31;;;12.99;54.72
28344;BME280;15597;50.914;6.638;2024-03-23T07:07:15;100256.44;;;13.03;54.76
28344;BME280;15597;50.914;6.638;2024-03-23T07:09:40;100248.44;;;13.06;55.12
28344;BME280;15597;50.914;6.638;2024-03-23T07:12:06;100256.22;;;13.09;54.98
28344;BME280;15597;50.914;6.638;2024-03-23T07:14:32;100249.13;;;13.11;54.74
28344;BME280;15597;50.914;6.638;2024-03-23T07:16:57;100252.66;;;13.10;55.08
28344;BME280;15597;50.914;6.638;2024-03-23T07:19:23;100261.47;;;13.09;55.29
28344;BME280;15597;50.914;6.638;2024-03-23T07:21:50;100258.84;;;13.09;55.27
28344;BME280;15597;50.914;6.638;2024-03-23T07:24:15;100258.78;;;13.10;55.24
28344;BME280;15597;50.914;6.638;2024-03-23T07:26:41;100273.56;;;13.13;55.14
28344;BME280;15597;50.914;6.638;2024-03-23T07:29:07;100278.72;;;13.16;55.25
28344;BME280;15597;50.914;6.638;2024-03-23T07:31:33;100270.84;;;13.16;55.40
28344;BME280;15597;50.914;6.638;2024-03-23T07:33:58;100269.16;;;13.13;55.19
28344;BME280;15597;50.914;6.638;2024-03-23T07:36:24;100256.22;;;13.09;55.12
28344;BME280;15597;50.914;6.638;2024-03-23T07:38:50;100250.97;;;13.09;54.90
28344;BME280;15597;50.914;6.638;2024-03-23T07:41:17;100258.03;;;13.07;55.18
28344;BME280;15597;50.914;6.638;2024-03-23T07:43:43;100259.75;;;13.08;55.74
28344;BME280;15597;50.914;6.638;2024-03-23T07:46:09;100263.97;;;13.12;55.21
28344;BME280;15597;50.914;6.638;2024-03-23T07:48:35;100270.94;;;13.13;55.03
28344;BME280;15597;50.914;6.638;2024-03-23T07:53:27;100268.25;;;13.14;54.63
28344;BME280;15597;50.914;6.638;2024-03-23T07:55:57;100268.31;;;13.13;54.34
28344;BME280;15597;50.914;6.638;2024-03-23T07:58:23;100269.03;;;13.17;54.08
28344;BME280;15597;50.914;6.638;2024-03-23T08:00:49;100262.94;;;13.16;53.56
28344;BME280;15597;50.914;6.638;2024-03-23T08:03:15;100264.78;;;13.14;53.38
28344;BME280;15597;50.914;6.638;2024-03-23T08:05:41;100266.59;;;13.12;53.16
28344;BME280;15597;50.914;6.638;2024-03-23T08:08:06;100265.00;;;13.08;52.97
28344;BME280;15597;50.914;6.638;2024-03-23T08:10:32;100268.66;;;13.04;53.03
28344;BME280;15597;50.914;6.638;2024-03-23T08:12:57;100266.94;;;13.03;53.19
28344;BME280;15597;50.914;6.638;2024-03-23T08:15:23;100277.44;;;13.03;52.87
28344;BME280;15597;50.914;6.638;2024-03-23T08:17:49;100277.44;;;13.03;53.36
28344;BME280;15597;50.914;6.638;2024-03-23T08:20:15;100278.28;;;13.03;52.70
28344;BME280;15597;50.914;6.638;2024-03-23T08:22:40;100280.00;;;13.04;53.08
28344;BME280;15597;50.914;6.638;2024-03-23T08:25:06;100275.63;;;13.05;53.61
28344;BME280;15597;50.914;6.638;2024-03-23T08:27:32;100280.78;;;13.08;53.85
28344;BME280;15597;50.914;6.638;2024-03-23T08:29:58;100274.53;;;13.10;53.54
28344;BME280;15597;50.914;6.638;2024-03-23T08:32:24;100284.19;;;13.10;53.80
28344;BME280;15597;50.914;6.638;2024-03-23T08:34:50;100282.41;;;13.10;53.64
28344;BME280;15597;50.914;6.638;2024-03-23T08:37:15;100275.31;;;13.12;54.10
28344;BME280;15597;50.914;6.638;2024-03-23T08:39:43;100283.97;;;13.16;54.33
28344;BME280;15597;50.914;6.638;2024-03-23T08:42:09;100282.03;;;13.21;54.40
28344;BME280;15597;50.914;6.638;2024-03-23T08:44:34;100271.41;;;13.24;54.41
28344;BME280;15597;50.914;6.638;2024-03-23T08:47:01;100273.00;;;13.28;54.33
28344;BME280;15597;50.914;6.638;2024-03-23T08:49:27;100275.38;;;13.35;54.65
28344;BME280;15597;50.914;6.638;2024-03-23T08:51:53;100277.78;;;13.41;54.93
28344;BME280;15597;50.914;6.638;2024-03-23T08:54:19;100275.88;;;13.46;54.63
28344;BME280;15597;50.914;6.638;2024-03-23T08:56:46;100272.19;;;13.50;54.54
28344;BME280;15597;50.914;6.638;2024-03-23T08:59:11;100263.28;;;13.54;54.39
28344;BME280;15597;50.914;6.638;2024-03-23T09:01:37;100271.84;;;13.59;54.79
28344;BME280;15597;50.914;6.638;2024-03-23T09:04:03;100274.31;;;13.64;54.13
28344;BME280;15597;50.914;6.638;2024-03-23T09:06:29;100273.31;;;13.67;54.40
28344;BME280;15597;50.914;6.638;2024-03-23T09:08:55;100282.78;;;13.71;53.92
28344;BME280;15597;50.914;6.638;2024-03-23T09:11:20;100278.44;;;13.70;54.03
28344;BME280;15597;50.914;6.638;2024-03-23T09:13:46;100271.47;;;13.69;53.27
28344;BME280;15597;50.914;6.638;2024-03-23T09:16:12;100270.00;;;13.62;52.71
28344;BME280;15597;50.914;6.638;2024-03-23T09:18:38;100280.84;;;13.54;53.38
28344;BME280;15597;50.914;6.638;2024-03-23T09:21:09;100281.88;;;13.50;52.97
28344;BME280;15597;50.914;6.638;2024-03-23T09:23:36;100260.88;;;13.48;53.89
28344;BME280;15597;50.914;6.638;2024-03-23T09:26:04;100272.31;;;13.47;53.95
28344;BME280;15597;50.914;6.638;2024-03-23T09:28:33;100272.19;;;13.50;54.24
28344;BME280;15597;50.914;6.638;2024-03-23T09:31:03;100261.56;;;13.53;54.14
28344;BME280;15597;50.914;6.638;2024-03-23T09:33:29;100250.88;;;13.58;53.13
28344;BME280;15597;50.914;6.638;2024-03-23T09:35:54;100263.03;;;13.61;53.35
28344;BME280;15597;50.914;6.638;2024-03-23T09:38:22;100253.28;;;13.64;53.28
28344;BME280;15597;50.914;6.638;2024-03-23T09:40:50;100255.69;;;13.69;53.37
28344;BME280;15597;50.914;6.638;2024-03-23T09:43:18;100258.88;;;13.77;53.24
28344;BME280;15597;50.914;6.638;2024-03-23T09:45:45;100250.97;;;13.77;52.70
28344;BME280;15597;50.914;6.638;2024-03-23T09:48:11;100256.06;;;13.82;52.29
28344;BME280;15597;50.914;6.638;2024-03-23T09:50:40;100253.41;;;13.83;52.21
28344;BME280;15597;50.914;6.638;2024-03-23T09:53:07;100247.88;;;13.90;52.50
28344;BME280;15597;50.914;6.638;2024-03-23T09:55:34;100256.44;;;13.95;52.69
28344;BME280;15597;50.914;6.638;2024-03-23T09:58:03;100249.34;;;13.97;52.27
28344;BME280;15597;50.914;6.638;2024-03-23T10:00:31;100258.16;;;13.96;51.63
28344;BME280;15597;50.914;6.638;2024-03-23T10:03:01;100254.72;;;13.94;51.08
28344;BME280;15597;50.914;6.638;2024-03-23T10:05:30;100249.47;;;13.94;50.70
28344;BME280;15597;50.914;6.638;2024-03-23T10:10:44;100272.84;;;13.79;51.52
28344;BME280;15597;50.914;6.638;2024-03-23T10:13:10;100282.00;;;13.69;51.28
28344;BME280;15597;50.914;6.638;2024-03-23T10:15:38;100271.97;;;13.56;51.79
28344;BME280;15597;50.914;6.638;2024-03-23T10:18:19;100275.88;;;13.46;52.31
28344;BME280;15597;50.914;6.638;2024-03-23T10:21:06;100274.16;;;13.45;52.57
28344;BME280;15597;50.914;6.638;2024-03-23T10:23:36;100272.19;;;13.50;52.81
28344;BME280;15597;50.914;6.638;2024-03-23T10:26:23;100262.44;;;13.54;52.98
28344;BME280;15597;50.914;6.638;2024-03-23T10:28:55;100268.28;;;13.61;53.82
28344;BME280;15597;50.914;6.638;2024-03-23T10:31:28;100267.22;;;13.66;53.68
28344;BME280;15597;50.914;6.638;2024-03-23T10:33:54;100262.66;;;13.70;53.71
28344;BME280;15597;50.914;6.638;2024-03-23T10:36:21;100253.75;;;13.74;53.95
28344;BME280;15597;50.914;6.638;2024-03-23T10:38:50;100261.50;;;13.77;53.77
28344;BME280;15597;50.914;6.638;2024-03-23T10:41:16;100261.47;;;13.79;53.77
28344;BME280;15597;50.914;6.638;2024-03-23T10:43:43;100258.88;;;13.77;53.96
28344;BME280;15597;50.914;6.638;2024-03-23T10:46:10;100261.41;;;13.80;54.15
28344;BME280;15597;50.914;6.638;2024-03-23T10:48:36;100265.63;;;13.84;54.04
28344;BME280;15597;50.914;6.638;2024-03-23T10:51:01;100259.13;;;13.93;54.65
28344;BME280;15597;50.914;6.638;2024-03-23T10:53:28;100251.06;;;13.98;54.02
28344;BME280;15597;50.914;6.638;2024-03-23T10:55:56;100246.47;;;14.03;53.95
28344;BME280;15597;50.914;6.638;2024-03-23T10:58:26;100240.28;;;14.04;53.63
28344;BME280;15597;50.914;6.638;2024-03-23T11:00:53;100239.28;;;14.07;53.58
28344;BME280;15597;50.914;6.638;2024-03-23T11:03:33;100233.31;;;14.03;53.10
28344;BME280;15597;50.914;6.638;2024-03-23T11:05:59;100246.38;;;14.05;53.11
28344;BME280;15597;50.914;6.638;2024-03-23T11:13:41;100249.94;;;14.03;52.01
28344;BME280;15597;50.914;6.638;2024-03-23T11:16:17;100238.69;;;14.00;51.99
28344;BME280;15597;50.914;6.638;2024-03-23T11:18:47;100236.84;;;14.02;52.10
28344;BME280;15597;50.914;6.638;2024-03-23T11:24:16;100233.06;;;14.09;52.17
28344;BME280;15597;50.914;6.638;2024-03-23T11:26:42;100239.16;;;14.10;51.70
28344;BME280;15597;50.914;6.638;2024-03-23T11:29:12;100227.78;;;14.09;51.43
28344;BME280;15597;50.914;6.638;2024-03-23T11:31:38;100232.78;;;14.15;51.80
28344;BME280;15597;50.914;6.638;2024-03-23T11:34:05;100244.75;;;14.23;51.65
28344;BME280;15597;50.914;6.638;2024-03-23T11:36:31;100265.81;;;14.23;50.73
28344;BME280;15597;50.914;6.638;2024-03-23T11:38:57;100251.88;;;14.21;50.52
28344;BME280;15597;50.914;6.638;2024-03-23T11:41:23;100248.56;;;14.15;49.88
28344;BME280;15597;50.914;6.638;2024-03-23T11:43:50;100254.88;;;14.11;50.74
28344;BME280;15597;50.914;6.638;2024-03-23T11:46:22;100243.69;;;14.06;50.45
28344;BME280;15597;50.914;6.638;2024-03-23T11:48:51;100249.22;;;14.00;51.53
28344;BME280;15597;50.914;6.638;2024-03-23T11:51:17;100256.19;;;14.01;51.65
28344;BME280;15597;50.914;6.638;2024-03-23T11:53:42;100240.53;;;13.98;51.42
28344;BME280;15597;50.914;6.638;2024-03-23T11:56:08;100230.00;;;13.98;52.24
28344;BME280;15597;50.914;6.638;2024-03-23T11:58:34;100236.97;;;13.99;52.03
28344;BME280;15597;50.914;6.638;2024-03-23T12:01:02;100242.13;;;14.02;52.13
28344;BME280;15597;50.914;6.638;2024-03-23T12:03:29;100242.13;;;14.02;51.58
28344;BME280;15597;50.914;6.638;2024-03-23T12:05:57;100288.69;;;14.00;51.61
28344;BME280;15597;50.914;6.638;2024-03-23T12:08:33;100295.16;;;13.91;51.17
28344;BME280;15597;50.914;6.638;2024-03-23T12:13:32;100288.84;;;13.51;50.49
28344;BME280;15597;50.914;6.638;2024-03-23T12:16:16;100294.00;;;13.28;50.72
28344;BME280;15597;50.914;6.638;2024-03-23T12:18:44;100296.41;;;13.11;50.90
28344;BME280;15597;50.914;6.638;2024-03-23T12:21:09;100312.84;;;12.92;50.62
28344;BME280;15597;50.914;6.638;2024-03-23T12:23:35;100303.94;;;12.71;51.15
28344;BME280;15597;50.914;6.638;2024-03-23T12:26:01;100290.38;;;12.58;52.30
28344;BME280;15597;50.914;6.638;2024-03-23T12:28:27;100268.59;;;12.56;53.43
28344;BME280;15597;50.914;6.638;2024-03-23T12:30:53;100270.94;;;12.64;53.51
28344;BME280;15597;50.914;6.638;2024-03-23T12:33:20;100266.44;;;12.67;53.02
28344;BME280;15597;50.914;6.638;2024-03-23T12:35:49;100269.78;;;12.73;53.19
28344;BME280;15597;50.914;6.638;2024-03-23T12:38:15;100252.25;;;12.73;52.88
28344;BME280;15597;50.914;6.638;2024-03-23T12:40:41;100246.09;;;12.74;53.07
28344;BME280;15597;50.914;6.638;2024-03-23T12:43:07;100256.31;;;12.82;53.30
28344;BME280;15597;50.914;6.638;2024-03-23T12:45:35;100258.53;;;12.93;53.03
28344;BME280;15597;50.914;6.638;2024-03-23T12:48:01;100254.72;;;13.02;52.83
28344;BME280;15597;50.914;6.638;2024-03-23T12:50:26;100250.09;;;13.08;52.60
28344;BME280;15597;50.914;6.638;2024-03-23T12:52:52;100243.75;;;13.14;52.36
28344;BME280;15597;50.914;6.638;2024-03-23T12:55:18;100236.56;;;13.19;51.87
28344;BME280;15597;50.914;6.638;2024-03-23T12:57:44;100231.94;;;13.26;52.29
28344;BME280;15597;50.914;6.638;2024-03-23T13:00:10;100232.53;;;13.33;52.50
28344;BME280;15597;50.914;6.638;2024-03-23T13:02:38;100229.59;;;13.42;53.54
28344;BME280;15597;50.914;6.638;2024-03-23T13:05:05;100226.47;;;13.54;54.23
28344;BME280;15597;50.914;6.638;2024-03-23T13:07:30;100227.56;;;13.71;54.91
28344;BME280;15597;50.914;6.638;2024-03-23T13:09:56;100226.06;;;13.87;55.45
28344;BME280;15597;50.914;6.638;2024-03-23T13:12:22;100221.88;;;14.04;55.10
28344;BME280;15597;50.914;6.638;2024-03-23T13:14:48;100216.88;;;14.19;55.26
28344;BME280;15597;50.914;6.638;2024-03-23T13:17:14;100223.31;;;14.32;54.03
28344;BME280;15597;50.914;6.638;2024-03-23T13:19:40;100220.28;;;14.41;53.42
28344;BME280;15597;50.914;6.638;2024-03-23T13:22:06;100212.13;;;14.48;53.36
28344;BME280;15597;50.914;6.638;2024-03-23T13:24:32;100203.03;;;14.55;52.94
28344;BME280;15597;50.914;6.638;2024-03-23T13:26:58;100206.31;;;14.60;52.07
28344;BME280;15597;50.914;6.638;2024-03-23T13:29:24;100204.59;;;14.59;51.36
28344;BME280;15597;50.914;6.638;2024-03-23T13:31:51;100215.28;;;14.56;50.92
28344;BME280;15597;50.914;6.638;2024-03-23T13:34:17;100220.81;;;14.50;49.72
28344;BME280;15597;50.914;6.638;2024-03-23T13:36:44;100219.75;;;14.33;49.08
28344;BME280;15597;50.914;6.638;2024-03-23T13:39:11;100209.94;;;14.16;48.43
28344;BME280;15597;50.914;6.638;2024-03-23T13:41:40;100225.84;;;13.92;47.79
28344;BME280;15597;50.914;6.638;2024-03-23T13:44:07;100236.25;;;13.73;47.67
28344;BME280;15597;50.914;6.638;2024-03-23T13:46:33;100221.09;;;13.57;47.88
28344;BME280;15597;50.914;6.638;2024-03-23T13:48:59;100212.66;;;13.49;48.47
28344;BME280;15597;50.914;6.638;2024-03-23T13:51:26;100219.75;;;13.47;48.46
28344;BME280;15597;50.914;6.638;2024-03-23T13:53:56;100203.84;;;13.50;49.13